Latest Weather Observations for Cato Island

IDQ60801

Issued at 8:42 pm EST Saturday 23 February 2019 (issued every 10 minutes, with the page automatically refreshed every 10 minutes)

About weather observations | Map of weather stations | Latest weather observations for QLD | Other Formats
Station Details ID: 200601 Name: CATO ISLAND Lat: -23.25 Lon: 155.54 Height: 6.3 m
Data from the previous 72 hours. | See also: Recent months for locations in Queensland
Date/Time
EST
Temp
°C
App
Temp
°C
Dew
Point
°C
Rel
Hum
%
Delta-T
°C
Wind Press
QNH
hPa
Press
MSL
hPa
Rain since
9am
mm
Dir  Spd
km/h
Gust
km/h
Spd
kts
Gust
kts
23/08:30pm 25.7 - - - - - 54 65 29 35 1011.9 - -
23/08:00pm 25.6 - - - - - 52 61 28 33 1011.8 1011.9 -
23/07:30pm 25.8 - - - - - 52 59 28 32 1011.6 - -
23/07:00pm 25.8 - - - - - 54 65 29 35 1011.3 1011.3 -
23/06:35pm 25.5 - - - - - 44 63 24 34 1010.9 - -
23/06:30pm 25.2 - - - - - 46 59 25 32 1010.9 - -
23/06:00pm 25.4 - - - - - 52 57 28 31 1010.4 1010.4 -
23/05:35pm 24.9 - - - - - 61 70 33 38 1010.0 - -
23/05:30pm 25.6 - - - - - 41 59 22 32 1009.9 - -
23/05:00pm 25.6 - - - - - 43 56 23 30 1009.8 1009.8 -
23/04:30pm 25.6 - - - - - 44 54 24 29 1009.3 - -
23/04:00pm 25.3 - - - - - 56 70 30 38 1009.3 1009.3 -
23/03:56pm 26.1 - - - - - 48 67 26 36 1009.3 - -
23/03:30pm 26.1 - - - - - 46 54 25 29 1008.9 - -
23/03:00pm 26.4 - - - - - 46 54 25 29 1009.0 1009.1 -
23/02:30pm 26.6 - - - - - 41 50 22 27 1009.0 - -
23/02:00pm 26.6 - - - - - 44 50 24 27 1009.1 1009.2 -
23/01:30pm 26.6 - - - - - 44 50 24 27 1009.1 - -
23/01:00pm 26.3 - - - - - 44 50 24 27 1009.0 1009.1 -
23/12:30pm 26.4 - - - - - 44 56 24 30 1009.0 - -
23/12:00pm 26.6 - - - - - 44 54 24 29 1009.3 1009.3 -
23/11:30am 26.5 - - - - - 43 50 23 27 1009.3 - -
23/11:00am 26.5 - - - - - 46 54 25 29 1009.3 1009.4 -
23/10:30am 26.5 - - - - - 44 54 24 29 1009.5 - -
23/10:00am 26.3 - - - - - 35 39 19 21 1009.6 1009.5 -
23/09:30am 25.5 - - - - - 43 50 23 27 1009.6 - -
23/09:00am 26.4 - - - - - 43 50 23 27 1009.3 1009.4 -
23/08:30am 26.5 - - - - - 44 54 24 29 1009.1 - -
23/08:00am 26.5 - - - - - 43 50 23 27 1009.0 1009.1 -
23/07:30am 26.3 - - - - - 41 48 22 26 1008.6 - -
23/07:00am 26.1 - - - - - 46 56 25 30 1008.4 1008.5 -
23/06:30am 26.1 - - - - - 44 52 24 28 1008.1 - -
23/06:00am 26.0 - - - - - 46 56 25 30 1007.8 1007.9 -
23/05:30am 25.7 - - - - - 46 54 25 29 1007.5 - -
23/05:00am 25.8 - - - - - 37 44 20 24 1007.2 1007.3 -
23/04:35am 25.6 - - - - - 48 67 26 36 1007.0 - -
23/04:30am 25.7 - - - - - 48 57 26 31 1006.9 - -
23/04:00am 25.4 - - - - - 46 54 25 29 1006.9 1007.0 -
23/03:38am 25.2 - - - - - 50 69 27 37 1006.8 - -
23/03:30am 25.3 - - - - - 54 69 29 37 1006.6 - -
23/03:00am 25.9 - - - - - 50 61 27 33 1006.7 1006.9 -
23/02:30am 25.4 - - - - - 56 65 30 35 1006.9 - -
23/02:00am 26.0 - - - - - 57 67 31 36 1006.7 1006.8 -
23/01:48am 25.6 - - - - - 54 72 29 39 1006.7 - -
23/01:30am 25.7 - - - - - 54 65 29 35 1006.6 - -
23/01:00am 25.8 - - - - - 56 65 30 35 1006.6 1006.7 -
23/12:30am 26.1 - - - - - 54 65 29 35 1006.8 - -
23/12:00am 25.6 - - - - - 48 56 26 30 1006.8 1006.9 -
 
Date/Time
EST
Temp
°C
App
Temp
°C
Dew
Point
°C
Rel
Hum
%
Delta-T
°C
Wind Press
QNH
hPa
Press
MSL
hPa
Rain since
9am
mm
Dir  Spd
km/h
Gust
km/h
Spd
kts
Gust
kts
22/11:38pm 25.7 - - - - - 50 69 27 37 1006.8 - -
22/11:30pm 25.7 - - - - - 54 65 29 35 1006.9 - -
22/11:00pm 26.0 - - - - - 57 67 31 36 1006.8 1006.9 -
22/10:30pm 25.9 - - - - - 52 65 28 35 1006.9 - -
22/10:12pm 25.5 - - - - - 54 72 29 39 1006.9 - -
22/10:00pm 25.6 - - - - - 57 70 31 38 1006.8 1006.9 -
22/09:41pm 25.4 - - - - - 57 82 31 44 1006.6 - -
22/09:30pm 26.0 - - - - - 61 72 33 39 1006.6 - -
22/09:00pm 26.0 - - - - - 57 76 31 41 1006.4 1006.5 -
22/08:30pm 26.4 - - - - - 61 74 33 40 1006.1 - -
22/08:00pm 26.1 - - - - - 67 78 36 42 1005.8 1005.9 -
22/07:30pm 26.3 - - - - - 57 70 31 38 1005.4 - -
22/07:11pm 26.2 - - - - - 59 78 32 42 1005.0 - -
22/07:00pm 26.4 - - - - - 63 74 34 40 1004.8 1005.0 -
22/06:30pm 26.3 - - - - - 63 80 34 43 1004.1 - -
22/06:00pm 26.4 - - - - - 61 72 33 39 1003.8 1004.0 -
22/05:30pm 26.3 - - - - - 61 74 33 40 1003.5 - -
22/05:13pm 26.2 - - - - - 54 74 29 40 1003.4 - -
22/05:00pm 26.1 - - - - - 56 70 30 38 1003.3 1003.4 -
22/04:34pm 26.0 - - - - - 52 70 28 38 1003.0 - -
22/04:30pm 25.7 - - - - - 48 59 26 32 1003.0 - -
22/04:15pm 26.4 - - - - - 61 83 33 45 1002.8 - -
22/04:00pm 26.6 - - - - - 61 74 33 40 1002.5 1002.6 -
22/03:47pm 26.4 - - - - - 57 76 31 41 1002.3 - -
22/03:30pm 26.9 - - - - - 57 70 31 38 1002.2 - -
22/03:00pm 25.9 - - - - - 57 80 31 43 1001.9 1002.1 -
22/02:34pm 26.0 - - - - - 50 72 27 39 1001.9 - -
22/02:30pm 26.4 - - - - - 50 57 27 31 1001.8 - -
22/02:00pm 25.4 - - - - - 57 80 31 43 1001.9 1001.9 -
22/01:56pm 25.0 - - - - - 65 83 35 45 1001.9 - -
22/01:51pm 25.0 - - - - - 74 83 40 45 1001.8 - -
22/01:49pm 26.0 - - - - - 52 82 28 44 1001.8 - -
22/01:30pm 26.7 - - - - - 54 63 29 34 1001.7 - -
22/01:00pm 26.5 - - - - - 52 65 28 35 1001.6 1001.7 -
22/12:30pm 25.9 - - - - - 48 61 26 33 1001.6 - -
22/12:22pm 26.2 - - - - - 41 61 22 33 1001.6 - -
22/12:00pm 26.2 - - - - - 48 57 26 31 1001.6 1001.6 -
22/11:30am 26.8 - - - - - 54 67 29 36 1001.6 - -
22/11:00am 27.3 - - - - - 52 61 28 33 1001.5 1001.6 -
22/10:30am 27.1 - - - - - 52 61 28 33 1001.4 - -
22/10:00am 26.9 - - - - - 48 57 26 31 1001.5 1001.5 -
22/09:30am 26.8 - - - - - 50 61 27 33 1001.4 - -
22/09:00am 27.2 - - - - - 50 61 27 33 1001.1 1001.2 -
22/08:30am 26.8 - - - - - 46 57 25 31 1000.7 - -
22/08:00am 25.6 - - - - - 54 63 29 34 1000.5 1000.6 -
22/07:30am 26.6 - - - - - 50 63 27 34 1000.1 - -
22/07:00am 26.6 - - - - - 52 63 28 34 999.8 999.9 -
22/06:31am 24.8 - - - - - 50 69 27 37 999.6 - -
22/06:30am 24.6 - - - - - 52 69 28 37 999.6 - -
22/06:15am 25.6 - - - - - 57 76 31 41 999.4 - -
22/06:00am 26.5 - - - - - 57 72 31 39 999.1 999.2 -
22/05:30am 26.5 - - - - - 56 65 30 35 998.7 - -
22/05:09am 26.2 - - - - - 50 69 27 37 998.7 - -
22/05:00am 26.3 - - - - - 54 69 29 37 998.6 998.8 -
22/04:30am 26.0 - - - - - 57 70 31 38 998.3 - -
22/04:00am 26.2 - - - - - 54 70 29 38 997.9 998.0 -
22/03:45am 26.3 - - - - - 54 72 29 39 998.0 - -
22/03:30am 26.4 - - - - - 61 74 33 40 998.1 - -
22/03:00am 26.4 - - - - - 61 74 33 40 998.0 998.1 -
22/02:30am 26.3 - - - - - 56 70 30 38 998.1 - -
22/02:11am 26.3 - - - - - 56 74 30 40 998.2 - -
22/02:00am 25.9 - - - - - 59 72 32 39 998.2 998.2 -
22/01:30am 24.6 - - - - - 57 76 31 41 998.4 - -
22/01:00am 26.5 - - - - - 57 70 31 38 998.6 998.7 -
22/12:30am 26.5 - - - - - 59 70 32 38 998.9 - -
22/12:00am 26.7 - - - - - 59 76 32 41 999.2 999.3 -
 
Date/Time
EST
Temp
°C
App
Temp
°C
Dew
Point
°C
Rel
Hum
%
Delta-T
°C
Wind Press
QNH
hPa
Press
MSL
hPa
Rain since
9am
mm
Dir  Spd
km/h
Gust
km/h
Spd
kts
Gust
kts
21/11:30pm 26.7 - - - - - 63 74 34 40 999.1 - -
21/11:00pm 26.8 - - - - - 56 69 30 37 999.4 999.4 -
21/10:46pm 26.6 - - - - - 56 74 30 40 999.5 - -
21/10:30pm 26.7 - - - - - 59 74 32 40 999.6 - -
21/10:01pm 27.1 - - - - - 63 82 34 44 999.7 - -
21/10:00pm 26.9 - - - - - 63 82 34 44 999.7 999.9 -
21/09:30pm 26.7 - - - - - 56 65 30 35 1000.1 - -
21/09:00pm 26.6 - - - - - 59 69 32 37 999.9 999.9 -
21/08:30pm 26.8 - - - - - 63 76 34 41 999.8 - -
21/08:00pm 26.8 - - - - - 56 65 30 35 999.7 999.9 -
21/07:30pm 26.7 - - - - - 61 74 33 40 999.6 - -
21/07:00pm 26.7 - - - - - 63 74 34 40 999.3 999.5 -
21/06:30pm 26.7 - - - - - 57 67 31 36 999.2 - -
21/06:00pm 26.7 - - - - - 59 72 32 39 998.8 999.0 -
21/05:30pm 26.5 - - - - - 61 74 33 40 998.7 - -
21/05:13pm 26.8 - - - - - 57 76 31 41 998.6 - -
21/05:00pm 26.8 - - - - - 59 70 32 38 998.6 998.6 -
21/04:30pm 26.6 - - - - - 59 72 32 39 998.6 - -
21/04:04pm 26.3 - - - - - 61 80 33 43 998.5 - -
21/04:00pm 26.9 - - - - - 61 72 33 39 998.4 998.6 -
21/03:30pm 26.1 - - - - - 61 76 33 41 998.4 - -
21/03:00pm 27.0 - - - - - 57 69 31 37 998.3 998.4 -
21/02:30pm 26.9 - - - - - 54 69 29 37 998.6 - -
21/02:00pm 26.9 - - - - - 57 67 31 36 998.8 998.9 -
21/01:30pm 26.7 - - - - - 57 70 31 38 999.0 - -
21/01:00pm 26.9 - - - - - 57 70 31 38 999.4 999.5 -
21/12:30pm 26.9 - - - - - 57 69 31 37 999.7 - -
21/12:00pm 27.2 - - - - - 57 69 31 37 1000.0 1000.1 -
21/11:30am 26.9 - - - - - 56 65 30 35 1000.3 - -
21/11:00am 27.1 - - - - - 57 67 31 36 1000.7 1000.8 -
21/10:30am 26.9 - - - - - 56 63 30 34 1000.7 - -
21/10:00am 26.7 - - - - - 56 67 30 36 1000.7 1000.8 -
21/09:30am 26.8 - - - - - 56 65 30 35 1000.7 - -
21/09:00am 26.6 - - - - - 57 69 31 37 1000.8 1000.9 -
21/08:30am 26.7 - - - - - 56 65 30 35 1000.7 - -
21/08:00am 26.8 - - - - - 56 63 30 34 1000.5 1000.6 -
21/07:30am 26.9 - - - - - 54 65 29 35 1000.5 - -
21/07:00am 26.7 - - - - - 54 63 29 34 1000.4 1000.4 -
21/06:30am 26.6 - - - - - 54 65 29 35 1000.2 - -
21/06:00am 26.4 - - - - - 54 63 29 34 999.8 1000.0 -
21/05:30am 26.5 - - - - - 56 69 30 37 999.7 - -
21/05:00am 26.5 - - - - - 56 67 30 36 999.5 999.7 -
21/04:30am 26.5 - - - - - 54 65 29 35 999.5 - -
21/04:00am 26.6 - - - - - 54 65 29 35 999.4 999.5 -
21/03:30am 26.6 - - - - - 56 69 30 37 999.2 - -
21/03:00am 26.5 - - - - - 50 63 27 34 999.2 999.4 -
21/02:30am 26.5 - - - - - 48 57 26 31 999.3 - -
21/02:00am 26.5 - - - - - 50 57 27 31 999.5 999.6 -
21/01:30am 26.6 - - - - - 48 59 26 32 999.7 - -
21/01:00am 26.6 - - - - - 48 57 26 31 1000.0 1000.2 -
21/12:30am 26.7 - - - - - 46 56 25 30 1000.4 - -
21/12:00am 26.7 - - - - - 46 56 25 30 1001.0 1001.1 -
 
Date/Time
EST
Temp
°C
App
Temp
°C
Dew
Point
°C
Rel
Hum
%
Delta-T
°C
Wind Press
QNH
hPa
Press
MSL
hPa
Rain since
9am
mm
Dir  Spd
km/h
Gust
km/h
Spd
kts
Gust
kts
20/11:30pm 26.7 - - - - - 44 52 24 28 1001.4 - -
20/11:00pm 26.6 - - - - - 43 50 23 27 1001.8 1001.8 -
20/10:30pm 26.8 - - - - - 43 54 23 29 1001.9 - -
20/10:00pm 26.7 - - - - - 46 54 25 29 1002.1 1002.1 -
20/09:30pm 26.9 - - - - - 44 52 24 28 1002.2 - -
20/09:00pm 26.8 - - - - - 41 50 22 27 1001.9 1002.1 -

Other formats

Comma delimited format used in spreadsheet applications
http://www.bom.gov.au/fwo/IDQ60801/IDQ60801.94394.axf

JavaScript Object Notation format (JSON) in row-major order
http://www.bom.gov.au/fwo/IDQ60801/IDQ60801.94394.json

Data quality

Most of these data are generated automatically and are frequently updated. Quality checks on data are not normally performed. It is possible for incorrect values to appear. Refer to information at About Latest Weather Observations and please check the disclaimer before using these data.